createdAt,value
2023-03-16T00:01:21.126Z,25.79
2023-03-16T00:05:20.378Z,25.74
2023-03-16T00:09:20.460Z,25.73
2023-03-16T00:13:20.352Z,25.72
2023-03-16T00:17:20.742Z,25.69
2023-03-16T00:21:21.078Z,25.67
2023-03-16T00:25:20.434Z,25.61
2023-03-16T00:29:20.398Z,25.66
2023-03-16T00:33:20.418Z,25.63
2023-03-16T00:37:20.606Z,25.63
2023-03-16T00:41:20.452Z,25.68
2023-03-16T00:45:20.487Z,25.69
2023-03-16T00:49:20.507Z,25.68
2023-03-16T00:53:20.618Z,25.70
2023-03-16T00:57:20.614Z,25.71
2023-03-16T01:01:20.661Z,25.68
2023-03-16T01:05:20.733Z,25.72
2023-03-16T01:09:20.784Z,25.72
2023-03-16T01:13:20.899Z,25.74
2023-03-16T01:17:21.082Z,25.73
2023-03-16T01:21:20.956Z,25.70
2023-03-16T01:25:21.035Z,25.74
2023-03-16T01:29:21.157Z,25.73
2023-03-16T01:33:21.581Z,25.69
2023-03-16T01:37:21.363Z,25.73
2023-03-16T01:41:21.397Z,25.74
2023-03-16T01:45:21.505Z,25.77
2023-03-16T01:49:21.688Z,25.78
2023-03-16T01:53:22.164Z,25.77
2023-03-16T01:57:21.826Z,25.78
2023-03-16T02:01:21.859Z,25.84
2023-03-16T02:05:21.966Z,25.86
2023-03-16T02:09:22.052Z,25.87
2023-03-16T02:13:22.125Z,25.89
2023-03-16T02:17:22.242Z,25.91
2023-03-16T02:21:22.374Z,25.92
2023-03-16T02:25:22.454Z,25.94
2023-03-16T02:29:22.618Z,25.95
2023-03-16T02:33:22.697Z,25.96
2023-03-16T02:37:22.818Z,26.02
2023-03-16T02:41:22.960Z,26.03
2023-03-16T02:45:23.067Z,26.00
2023-03-16T02:49:23.197Z,26.06
2023-03-16T02:53:23.319Z,26.03
2023-03-16T02:57:23.455Z,26.11
2023-03-16T03:01:23.628Z,26.13
2023-03-16T03:05:24.551Z,26.12
2023-03-16T03:09:23.991Z,26.13
2023-03-16T03:13:24.105Z,26.15
2023-03-16T03:17:24.254Z,26.16
2023-03-16T03:21:25.143Z,26.15
2023-03-16T03:25:24.595Z,26.22
2023-03-16T03:29:24.776Z,26.21
2023-03-16T03:33:24.947Z,26.20
2023-03-16T03:37:25.025Z,26.24
2023-03-16T03:41:25.295Z,26.23
2023-03-16T03:45:25.395Z,26.21
2023-03-16T03:49:25.666Z,26.29
2023-03-16T03:53:26.597Z,26.28
2023-03-16T03:57:26.605Z,26.29
2023-03-16T04:01:26.091Z,26.29
2023-03-16T04:05:26.213Z,26.31
2023-03-16T04:09:26.346Z,26.29
2023-03-16T04:13:26.511Z,26.32
2023-03-16T04:17:26.692Z,26.25
2023-03-16T04:21:26.820Z,26.14
2023-03-16T04:25:26.789Z,25.97
2023-03-16T04:29:26.812Z,25.84
2023-03-16T04:33:26.769Z,25.74
2023-03-16T04:37:26.704Z,25.65
2023-03-16T04:41:26.676Z,25.58
2023-03-16T04:45:29.678Z,25.51
2023-03-16T04:49:26.586Z,25.48
2023-03-16T04:53:26.546Z,25.42
2023-03-16T04:57:26.494Z,25.39
2023-03-16T05:01:26.492Z,25.38
2023-03-16T05:05:26.536Z,25.37
2023-03-16T05:09:26.426Z,25.33
2023-03-16T05:13:26.355Z,25.29
2023-03-16T05:17:26.331Z,25.30
2023-03-16T05:21:26.260Z,25.26
2023-03-16T05:25:26.232Z,25.28
2023-03-16T05:29:26.657Z,25.26
2023-03-16T05:33:26.620Z,25.23
2023-03-16T05:37:26.137Z,25.23
2023-03-16T05:41:26.322Z,25.24
2023-03-16T05:45:26.490Z,25.21
2023-03-16T05:49:26.615Z,25.21
2023-03-16T05:53:26.779Z,25.20
2023-03-16T05:57:26.873Z,25.17
2023-03-16T06:01:27.060Z,25.18
2023-03-16T06:05:27.170Z,25.17
2023-03-16T06:09:27.346Z,25.18
2023-03-16T06:13:27.479Z,25.19
2023-03-16T06:17:27.656Z,25.21
2023-03-16T06:21:28.026Z,25.23
2023-03-16T06:25:28.058Z,25.23
2023-03-16T06:29:28.148Z,25.17
2023-03-16T06:33:29.214Z,25.20
2023-03-16T06:37:28.746Z,25.84
2023-03-16T06:41:29.686Z,27.29
2023-03-16T06:45:29.236Z,27.44
2023-03-16T06:49:28.832Z,27.64
2023-03-16T06:53:28.905Z,27.42
2023-03-16T06:57:32.249Z,27.33
2023-03-16T07:01:29.609Z,27.23
2023-03-16T07:05:28.904Z,27.15
2023-03-16T07:09:29.702Z,27.05
2023-03-16T07:13:28.959Z,26.93
2023-03-16T07:17:28.825Z,26.82
2023-03-16T07:21:28.687Z,26.72
2023-03-16T07:25:28.724Z,26.61
2023-03-16T07:29:28.741Z,26.55
2023-03-16T07:33:29.641Z,26.45
2023-03-16T07:37:28.789Z,26.36
2023-03-16T07:41:30.082Z,26.30
2023-03-16T07:45:29.064Z,26.21
2023-03-16T07:49:28.850Z,26.13
2023-03-16T07:53:28.675Z,26.05
2023-03-16T07:57:28.616Z,26.00
2023-03-16T08:01:28.651Z,25.95
2023-03-16T08:05:28.428Z,25.91
2023-03-16T08:09:28.534Z,25.83
2023-03-16T08:13:28.945Z,25.78
2023-03-16T08:17:28.453Z,25.73
2023-03-16T08:21:28.629Z,25.68
2023-03-16T08:25:28.812Z,25.64
2023-03-16T08:29:28.983Z,25.79
2023-03-16T08:33:29.027Z,25.94
2023-03-16T08:37:29.254Z,26.08
2023-03-16T08:41:29.464Z,26.01
2023-03-16T08:45:31.079Z,25.78
2023-03-16T08:49:29.438Z,25.37
2023-03-16T08:53:29.746Z,25.13
2023-03-16T08:57:29.361Z,24.93
2023-03-16T09:01:29.678Z,24.72
2023-03-16T09:05:34.746Z,24.55
2023-03-16T09:09:29.793Z,24.40
2023-03-16T09:13:29.856Z,24.21
2023-03-16T09:17:30.140Z,24.14
2023-03-16T09:21:30.109Z,24.04
2023-03-16T09:25:32.687Z,23.89
2023-03-16T09:29:30.683Z,23.72
2023-03-16T09:33:30.553Z,23.60
2023-03-16T09:37:44.427Z,23.53
2023-03-16T09:41:32.843Z,23.40
2023-03-16T09:45:31.062Z,24.49
2023-03-16T09:49:30.542Z,25.82
2023-03-16T09:53:30.801Z,25.08
2023-03-16T09:57:30.786Z,24.04
2023-03-16T10:01:31.826Z,23.64
2023-03-16T10:05:30.961Z,23.51
2023-03-16T10:09:31.365Z,23.43
2023-03-16T10:13:31.118Z,23.67
2023-03-16T10:17:31.285Z,23.23
2023-03-16T10:21:31.361Z,22.98
2023-03-16T10:25:31.641Z,23.04
2023-03-16T10:29:31.850Z,22.84
2023-03-16T10:33:32.499Z,23.28
2023-03-16T10:37:32.449Z,23.51
2023-03-16T10:41:32.015Z,24.12
2023-03-16T10:45:35.014Z,24.04
2023-03-16T10:49:33.863Z,23.51
2023-03-16T10:53:32.803Z,22.92
2023-03-16T10:57:32.196Z,22.28
2023-03-16T11:01:32.435Z,21.78
2023-03-16T11:05:32.193Z,21.56
2023-03-16T11:09:32.291Z,21.23
2023-03-16T11:13:32.233Z,21.04
2023-03-16T11:17:32.512Z,20.96
2023-03-16T11:21:32.136Z,21.05
2023-03-16T11:25:32.172Z,21.05
2023-03-16T11:29:32.113Z,21.58
2023-03-16T11:33:31.998Z,22.89
2023-03-16T11:37:32.019Z,22.45
2023-03-16T11:41:31.945Z,21.90
2023-03-16T11:45:31.927Z,22.07
2023-03-16T11:49:31.934Z,23.11
2023-03-16T11:53:31.849Z,22.70
2023-03-16T11:57:31.816Z,22.84
2023-03-16T12:01:32.020Z,22.82
2023-03-16T12:05:31.965Z,22.91
2023-03-16T12:09:31.713Z,23.21
2023-03-16T12:13:31.807Z,23.33
2023-03-16T12:17:31.763Z,23.51
2023-03-16T12:21:34.016Z,22.89
2023-03-16T12:25:31.906Z,22.62
2023-03-16T12:29:32.809Z,22.59
2023-03-16T12:33:31.659Z,22.53
2023-03-16T12:37:31.625Z,22.41
2023-03-16T12:41:31.602Z,22.26
2023-03-16T12:45:31.980Z,22.15
2023-03-16T12:49:31.464Z,21.99
2023-03-16T12:53:31.900Z,21.88
2023-03-16T12:57:31.393Z,21.82
2023-03-16T13:01:31.851Z,21.72
2023-03-16T13:05:31.535Z,21.69
2023-03-16T13:09:31.674Z,21.49
2023-03-16T13:13:31.772Z,21.48
2023-03-16T13:17:31.975Z,21.45
2023-03-16T13:21:31.971Z,21.50
2023-03-16T13:25:32.018Z,21.47
2023-03-16T13:29:32.091Z,21.39
2023-03-16T13:33:32.119Z,21.32
2023-03-16T13:37:32.197Z,21.13
2023-03-16T13:41:32.266Z,21.04
2023-03-16T13:45:32.526Z,21.06
2023-03-16T13:49:32.398Z,21.00
2023-03-16T13:53:32.555Z,20.91
2023-03-16T13:57:32.614Z,20.88
2023-03-16T14:01:32.817Z,20.77
2023-03-16T14:05:32.767Z,20.75
2023-03-16T14:09:33.810Z,20.73
2023-03-16T14:13:33.029Z,20.64
2023-03-16T14:17:33.085Z,20.56
2023-03-16T14:21:33.231Z,20.53
2023-03-16T14:25:33.337Z,20.48
2023-03-16T14:29:33.456Z,20.38
2023-03-16T14:33:33.596Z,20.32
2023-03-16T14:37:33.869Z,20.27
2023-03-16T14:41:33.951Z,20.21
2023-03-16T14:45:34.202Z,20.22
2023-03-16T14:49:34.368Z,20.24
2023-03-16T14:53:34.588Z,20.27
2023-03-16T14:57:34.638Z,20.29
2023-03-16T15:01:35.048Z,20.21
2023-03-16T15:05:36.376Z,20.15
2023-03-16T15:09:34.495Z,20.08
2023-03-16T15:13:34.493Z,19.88
2023-03-16T15:17:34.543Z,19.84
2023-03-16T15:21:34.940Z,19.72
2023-03-16T15:25:34.464Z,19.51
2023-03-16T15:29:34.381Z,19.43
2023-03-16T15:33:34.311Z,19.40
2023-03-16T15:37:35.836Z,19.30
2023-03-16T15:41:46.806Z,19.15
2023-03-16T15:45:35.243Z,19.18
2023-03-16T15:49:46.679Z,19.19
2023-03-16T15:53:35.973Z,18.98
2023-03-16T15:57:34.140Z,19.04
2023-03-16T16:01:34.041Z,19.02
2023-03-16T16:05:34.026Z,19.24
2023-03-16T16:09:34.151Z,19.57
2023-03-16T16:13:44.290Z,19.68
2023-03-16T16:17:50.454Z,19.79
2023-03-16T16:21:35.047Z,19.90
2023-03-16T16:25:34.042Z,19.99
2023-03-16T16:29:34.014Z,20.04
2023-03-16T16:33:33.978Z,20.17
2023-03-16T16:37:33.952Z,20.23
2023-03-16T16:41:36.919Z,20.28
2023-03-16T16:45:33.859Z,20.33
2023-03-16T16:49:33.800Z,20.40
2023-03-16T16:53:33.776Z,20.46
2023-03-16T16:57:33.767Z,20.58
2023-03-16T17:01:33.776Z,20.66
2023-03-16T17:05:33.648Z,20.66
2023-03-16T17:09:33.649Z,20.68
2023-03-16T17:13:33.562Z,20.74
2023-03-16T17:17:33.675Z,20.80
2023-03-16T17:21:33.579Z,20.82
2023-03-16T17:25:33.549Z,20.77
2023-03-16T17:29:35.554Z,20.77
2023-03-16T17:33:33.479Z,20.87
2023-03-16T17:37:33.923Z,20.89
2023-03-16T17:41:34.043Z,20.88
2023-03-16T17:45:33.819Z,20.96
2023-03-16T17:49:34.005Z,20.96
2023-03-16T17:53:34.124Z,21.04
2023-03-16T17:57:34.029Z,21.06
2023-03-16T18:01:34.264Z,21.07
2023-03-16T18:05:34.427Z,21.11
2023-03-16T18:09:34.160Z,21.13
2023-03-16T18:13:34.953Z,21.10
2023-03-16T18:17:34.056Z,21.08
2023-03-16T18:21:34.094Z,21.15
2023-03-16T18:25:35.431Z,21.15
2023-03-16T18:29:34.140Z,21.14
2023-03-16T18:33:34.145Z,21.14
2023-03-16T18:37:34.249Z,21.15
2023-03-16T18:41:34.284Z,21.21
2023-03-16T18:45:34.337Z,21.24
2023-03-16T18:49:34.343Z,21.21
2023-03-16T18:53:34.419Z,21.23
2023-03-16T18:57:34.499Z,21.26
2023-03-16T19:01:35.447Z,21.25
2023-03-16T19:05:34.656Z,21.25
2023-03-16T19:09:34.735Z,21.27
2023-03-16T19:13:34.843Z,21.29
2023-03-16T19:17:34.954Z,21.24
2023-03-16T19:21:34.933Z,21.20
2023-03-16T19:25:36.034Z,21.24
2023-03-16T19:29:35.265Z,21.22
2023-03-16T19:33:35.262Z,21.25
2023-03-16T19:37:35.442Z,21.27
2023-03-16T19:41:35.578Z,21.36
2023-03-16T19:45:35.708Z,21.40
2023-03-16T19:49:35.824Z,21.45
2023-03-16T19:53:36.004Z,21.51
2023-03-16T19:57:36.523Z,21.57
2023-03-16T20:01:38.989Z,21.62
2023-03-16T20:05:36.239Z,21.67
2023-03-16T20:09:36.180Z,21.73
2023-03-16T20:13:36.189Z,21.79
2023-03-16T20:17:36.077Z,21.87
2023-03-16T20:21:36.085Z,21.93
2023-03-16T20:25:36.000Z,21.97
2023-03-16T20:29:36.008Z,22.02
2023-03-16T20:33:35.983Z,22.09
2023-03-16T20:37:35.941Z,22.09
2023-03-16T20:41:36.039Z,22.16
2023-03-16T20:45:35.791Z,22.21
2023-03-16T20:49:35.752Z,22.26
2023-03-16T20:53:35.725Z,22.30
2023-03-16T20:57:35.898Z,22.35
2023-03-16T21:01:36.049Z,22.37
2023-03-16T21:05:36.251Z,22.39
2023-03-16T21:09:36.433Z,22.43
2023-03-16T21:13:36.611Z,22.44
2023-03-16T21:17:36.843Z,22.48
2023-03-16T21:21:36.759Z,22.53
2023-03-16T21:25:36.736Z,22.55
2023-03-16T21:29:36.761Z,22.58
2023-03-16T21:33:36.681Z,22.60
2023-03-16T21:37:37.136Z,22.61
2023-03-16T21:41:36.617Z,22.61
2023-03-16T21:45:36.542Z,22.64
2023-03-16T21:49:36.565Z,22.66
2023-03-16T21:53:36.538Z,22.70
2023-03-16T21:57:37.035Z,22.73
2023-03-16T22:01:38.239Z,22.74
2023-03-16T22:05:36.341Z,22.78
2023-03-16T22:09:36.322Z,22.78
2023-03-16T22:13:36.283Z,22.80
2023-03-16T22:17:36.488Z,22.80
2023-03-16T22:21:36.596Z,22.84
2023-03-16T22:25:36.444Z,22.86
2023-03-16T22:29:36.377Z,22.87
2023-03-16T22:33:36.365Z,22.89
2023-03-16T22:37:36.348Z,22.90
2023-03-16T22:41:36.383Z,22.94
2023-03-16T22:45:36.389Z,22.93
2023-03-16T22:49:36.295Z,22.98
2023-03-16T22:53:36.320Z,22.99
2023-03-16T22:57:36.363Z,22.99
2023-03-16T23:01:36.639Z,23.00
2023-03-16T23:05:36.156Z,23.02
2023-03-16T23:09:36.127Z,23.04
2023-03-16T23:13:36.079Z,23.07
2023-03-16T23:17:36.051Z,23.05
2023-03-16T23:21:36.100Z,23.06
2023-03-16T23:25:35.973Z,23.08
2023-03-16T23:29:35.996Z,23.12
2023-03-16T23:33:35.930Z,23.11
2023-03-16T23:37:36.069Z,23.13
2023-03-16T23:41:35.861Z,23.14
2023-03-16T23:45:35.766Z,23.16
2023-03-16T23:49:36.041Z,23.19
2023-03-16T23:53:35.927Z,23.18
2023-03-16T23:57:35.950Z,23.21
